createdAt,value
2018-12-25T00:01:56.374Z,93.61
2018-12-25T00:05:03.368Z,94.61
2018-12-25T00:08:10.276Z,94.36
2018-12-25T00:11:17.212Z,94.81
2018-12-25T00:14:24.082Z,94.85
2018-12-25T00:17:30.857Z,95.54
2018-12-25T00:20:37.948Z,95.80
2018-12-25T00:23:48.903Z,96.08
2018-12-25T00:26:55.886Z,95.96
2018-12-25T00:30:02.996Z,95.68
2018-12-25T00:33:09.990Z,95.47
2018-12-25T00:36:16.747Z,95.37
2018-12-25T00:39:25.502Z,95.46
2018-12-25T00:42:32.282Z,95.31
2018-12-25T00:45:38.994Z,94.80
2018-12-25T00:48:45.789Z,94.83
2018-12-25T00:51:52.535Z,94.95
2018-12-25T00:54:59.254Z,94.97
2018-12-25T00:58:06.174Z,95.05
2018-12-25T01:01:13.026Z,95.37
2018-12-25T01:04:19.882Z,95.16
2018-12-25T01:07:26.799Z,95.18
2018-12-25T01:10:33.690Z,95.19
2018-12-25T01:13:41.521Z,95.29
2018-12-25T01:16:48.713Z,95.34
2018-12-25T01:19:55.675Z,95.49
2018-12-25T01:23:02.564Z,95.49
2018-12-25T01:26:09.785Z,96.32
2018-12-25T01:29:16.752Z,96.60
2018-12-25T01:32:24.072Z,96.26
2018-12-25T01:35:30.999Z,96.26
2018-12-25T01:38:37.723Z,95.96
2018-12-25T01:41:45.561Z,96.12
2018-12-25T01:44:52.552Z,95.82
2018-12-25T01:47:59.463Z,95.96
2018-12-25T01:51:06.626Z,95.78
2018-12-25T01:54:13.340Z,95.72
2018-12-25T01:57:20.126Z,95.62
2018-12-25T02:00:26.815Z,96.06
2018-12-25T02:03:33.541Z,95.59
2018-12-25T02:06:41.302Z,95.79
2018-12-25T02:09:48.034Z,95.93
2018-12-25T02:12:54.717Z,95.82
2018-12-25T02:16:01.710Z,95.47
2018-12-25T02:19:08.644Z,95.43
2018-12-25T02:22:15.565Z,95.46
2018-12-25T02:25:22.618Z,96.08
2018-12-25T02:28:29.630Z,96.26
2018-12-25T02:31:36.510Z,95.63
2018-12-25T02:34:44.156Z,95.46
2018-12-25T02:37:51.163Z,95.50
2018-12-25T02:40:58.052Z,95.71
2018-12-25T02:44:05.064Z,95.55
2018-12-25T02:47:12.103Z,95.19
2018-12-25T02:50:18.993Z,94.94
2018-12-25T02:53:25.984Z,95.66
2018-12-25T02:56:32.636Z,95.40
2018-12-25T02:59:39.830Z,95.34
2018-12-25T03:02:47.852Z,95.19
2018-12-25T03:05:54.788Z,95.51
2018-12-25T03:09:01.716Z,95.51
2018-12-25T03:12:08.874Z,95.66
2018-12-25T03:15:16.522Z,95.46
2018-12-25T03:18:23.280Z,95.57
2018-12-25T03:21:29.984Z,95.54
2018-12-25T03:24:37.958Z,95.47
2018-12-25T03:27:45.300Z,95.71
2018-12-25T03:30:52.310Z,95.55
2018-12-25T03:33:58.997Z,95.62
2018-12-25T03:37:06.318Z,95.84
2018-12-25T03:40:13.382Z,95.87
2018-12-25T03:43:20.398Z,95.65
2018-12-25T03:46:28.242Z,95.83
2018-12-25T03:49:35.175Z,95.69
2018-12-25T03:52:42.341Z,96.10
2018-12-25T03:55:49.318Z,96.25
2018-12-25T03:58:56.011Z,96.48
2018-12-25T04:02:03.009Z,96.70
2018-12-25T04:05:09.936Z,96.65
2018-12-25T04:08:16.918Z,96.54
2018-12-25T04:11:24.098Z,96.49
2018-12-25T04:14:30.834Z,96.79
2018-12-25T04:17:37.556Z,96.38
2018-12-25T04:20:45.098Z,96.34
2018-12-25T04:23:52.155Z,96.68
2018-12-25T04:26:58.849Z,96.51
2018-12-25T04:30:05.883Z,96.60
2018-12-25T04:33:12.854Z,96.66
2018-12-25T04:36:20.059Z,96.48
2018-12-25T04:39:27.251Z,96.32
2018-12-25T04:42:34.415Z,96.42
2018-12-25T04:45:42.686Z,96.11
2018-12-25T04:48:49.573Z,96.15
2018-12-25T04:51:56.270Z,95.83
2018-12-25T04:55:03.382Z,95.60
2018-12-25T04:58:10.101Z,95.41
2018-12-25T05:01:17.014Z,95.08
2018-12-25T05:04:23.941Z,95.53
2018-12-25T05:07:30.865Z,94.60
2018-12-25T05:10:37.760Z,94.64
2018-12-25T05:13:45.346Z,94.56
2018-12-25T05:16:52.254Z,94.51
2018-12-25T05:19:59.227Z,94.61
2018-12-25T05:23:06.264Z,94.58
2018-12-25T05:26:13.152Z,94.25
2018-12-25T05:29:20.148Z,94.39
2018-12-25T05:32:27.312Z,94.59
2018-12-25T05:35:34.285Z,94.48
2018-12-25T05:38:42.471Z,94.40
2018-12-25T05:41:49.594Z,93.99
2018-12-25T05:44:56.268Z,93.82
2018-12-25T05:48:03.219Z,93.70
2018-12-25T05:51:10.101Z,93.12
2018-12-25T05:54:17.006Z,93.29
2018-12-25T05:57:24.008Z,93.75
2018-12-25T06:00:31.024Z,93.50
2018-12-25T06:03:37.953Z,93.83
2018-12-25T06:06:45.271Z,93.54
2018-12-25T06:09:52.276Z,93.06
2018-12-25T06:12:59.017Z,93.09
2018-12-25T06:16:05.973Z,93.41
2018-12-25T06:19:12.889Z,93.67
2018-12-25T06:22:19.770Z,93.43
2018-12-25T06:25:26.705Z,93.27
2018-12-25T06:28:33.414Z,92.36
2018-12-25T06:31:40.291Z,92.41
2018-12-25T06:34:47.261Z,92.52
2018-12-25T06:37:54.219Z,92.74
2018-12-25T06:41:01.131Z,92.20
2018-12-25T06:44:08.274Z,91.57
2018-12-25T06:47:15.281Z,92.14
2018-12-25T06:50:22.248Z,92.05
2018-12-25T06:53:29.151Z,92.13
2018-12-25T06:56:36.069Z,91.67
2018-12-25T06:59:43.360Z,91.97
2018-12-25T07:02:50.089Z,91.43
2018-12-25T07:05:56.784Z,91.12
2018-12-25T07:09:04.167Z,91.65
2018-12-25T07:12:11.356Z,91.61
2018-12-25T07:15:18.070Z,91.61
2018-12-25T07:18:24.759Z,91.49
2018-12-25T07:21:31.765Z,91.83
2018-12-25T07:24:38.648Z,90.87
2018-12-25T07:27:45.561Z,91.09
2018-12-25T07:30:52.443Z,91.17
2018-12-25T07:33:59.633Z,91.66
2018-12-25T07:37:06.309Z,92.01
2018-12-25T07:40:13.321Z,91.96
2018-12-25T07:43:20.241Z,91.96
2018-12-25T07:46:27.422Z,92.21
2018-12-25T07:49:34.387Z,92.36
2018-12-25T07:52:41.580Z,92.15
2018-12-25T07:55:48.463Z,91.86
2018-12-25T07:58:55.608Z,92.34
2018-12-25T08:02:02.392Z,92.12
2018-12-25T08:05:09.152Z,91.66
2018-12-25T08:08:15.828Z,92.40
2018-12-25T08:11:22.565Z,93.21
2018-12-25T08:14:29.251Z,93.58
2018-12-25T08:17:36.238Z,94.29
2018-12-25T08:20:43.219Z,93.54
2018-12-25T08:23:50.189Z,92.97
2018-12-25T08:26:57.186Z,93.26
2018-12-25T08:30:03.913Z,93.10
2018-12-25T08:33:10.843Z,93.60
2018-12-25T08:36:17.807Z,93.24
2018-12-25T08:39:24.767Z,93.16
2018-12-25T08:42:31.499Z,92.32
2018-12-25T08:45:38.138Z,92.58
2018-12-25T08:48:45.634Z,92.25
2018-12-25T08:51:52.605Z,91.71
2018-12-25T08:54:59.833Z,91.66
2018-12-25T08:58:06.536Z,91.75
2018-12-25T09:01:13.576Z,91.76
2018-12-25T09:04:20.480Z,91.80
2018-12-25T09:07:27.419Z,91.21
2018-12-25T09:10:34.062Z,91.49
2018-12-25T09:13:41.219Z,91.28
2018-12-25T09:16:48.200Z,91.30
2018-12-25T09:19:55.117Z,90.41
2018-12-25T09:23:02.131Z,90.22
2018-12-25T09:26:09.293Z,91.17
2018-12-25T09:29:16.018Z,90.38
2018-12-25T09:32:23.026Z,90.91
2018-12-25T09:35:29.959Z,90.97
2018-12-25T09:38:36.917Z,90.44
2018-12-25T09:41:44.111Z,91.13
2018-12-25T09:44:50.854Z,90.87
2018-12-25T09:47:57.563Z,90.95
2018-12-25T09:51:04.730Z,90.99
2018-12-25T09:54:11.678Z,91.02
2018-12-25T09:57:18.950Z,90.76
2018-12-25T10:00:25.770Z,90.98
2018-12-25T10:03:32.546Z,91.10
2018-12-25T10:06:39.280Z,91.52
2018-12-25T10:09:46.370Z,90.80
2018-12-25T10:12:53.349Z,90.87
2018-12-25T10:16:00.047Z,90.72
2018-12-25T10:19:07.197Z,91.27
2018-12-25T10:22:14.209Z,91.93
2018-12-25T10:25:21.117Z,91.00
2018-12-25T10:28:28.218Z,91.68
2018-12-25T10:31:35.354Z,91.82
2018-12-25T10:34:45.519Z,91.98
2018-12-25T10:37:52.749Z,90.98
2018-12-25T10:41:00.106Z,91.80
2018-12-25T10:44:07.279Z,91.71
2018-12-25T10:47:14.015Z,91.63
2018-12-25T10:50:20.838Z,91.79
2018-12-25T10:53:28.280Z,92.12
2018-12-25T10:56:35.293Z,92.56
2018-12-25T10:59:42.173Z,92.30
2018-12-25T11:02:49.067Z,92.19
2018-12-25T11:05:56.115Z,92.18
2018-12-25T11:09:06.554Z,92.47
2018-12-25T11:12:13.489Z,92.01
2018-12-25T11:15:20.623Z,92.29
2018-12-25T11:18:27.799Z,92.03
2018-12-25T11:21:34.706Z,92.28
2018-12-25T11:24:44.719Z,91.60
2018-12-25T11:27:51.717Z,92.22
2018-12-25T11:30:58.523Z,91.88
2018-12-25T11:34:05.859Z,92.21
2018-12-25T11:37:12.970Z,92.09
2018-12-25T11:40:19.758Z,92.02
2018-12-25T11:43:26.712Z,92.22
2018-12-25T11:46:33.872Z,92.46
2018-12-25T11:49:41.147Z,92.89
2018-12-25T11:52:48.900Z,93.49
2018-12-25T11:55:56.275Z,94.00
2018-12-25T11:59:03.265Z,94.73
2018-12-25T12:02:17.010Z,94.58
2018-12-25T12:05:18.604Z,94.60
2018-12-25T12:08:25.345Z,94.28
2018-12-25T12:11:32.210Z,94.86
2018-12-25T12:14:38.938Z,94.68
2018-12-25T12:17:47.562Z,95.07
2018-12-25T12:20:54.517Z,95.17
2018-12-25T12:24:01.424Z,95.20
2018-12-25T12:27:08.412Z,95.45
2018-12-25T12:30:15.661Z,95.62
2018-12-25T12:33:22.370Z,94.95
2018-12-25T12:36:29.302Z,94.82
2018-12-25T12:39:36.350Z,94.61
2018-12-25T12:42:45.230Z,94.61
2018-12-25T12:45:52.434Z,94.23
2018-12-25T12:48:59.407Z,94.59
2018-12-25T12:52:06.415Z,94.05
2018-12-25T12:55:13.687Z,93.68
2018-12-25T12:58:20.736Z,93.84
2018-12-25T13:01:27.716Z,94.24
2018-12-25T13:04:34.953Z,94.01
2018-12-25T13:07:44.220Z,94.07
2018-12-25T13:10:51.423Z,94.40
2018-12-25T13:14:01.090Z,94.13
2018-12-25T13:17:07.892Z,94.21
2018-12-25T13:20:14.576Z,94.55
2018-12-25T13:23:21.583Z,94.37
2018-12-25T13:26:29.674Z,94.08
2018-12-25T13:29:36.902Z,94.18
2018-12-25T13:32:46.557Z,94.55
2018-12-25T13:35:53.615Z,94.54
2018-12-25T13:39:00.509Z,94.64
2018-12-25T13:42:07.538Z,94.84
2018-12-25T13:45:14.652Z,94.67
2018-12-25T13:48:21.655Z,94.69
2018-12-25T13:51:28.612Z,94.91
2018-12-25T13:54:35.560Z,95.02
2018-12-25T13:57:43.556Z,94.66
2018-12-25T14:00:51.003Z,94.77
2018-12-25T14:03:58.211Z,94.52
2018-12-25T14:07:05.001Z,94.42
2018-12-25T14:10:11.683Z,94.56
2018-12-25T14:13:18.708Z,94.67
2018-12-25T14:16:25.613Z,94.65
2018-12-25T14:19:32.600Z,94.63
2018-12-25T14:22:39.255Z,94.08
2018-12-25T14:25:46.488Z,93.82
2018-12-25T14:28:53.724Z,93.91
2018-12-25T14:32:00.700Z,94.29
2018-12-25T14:35:07.853Z,94.29
2018-12-25T14:38:15.522Z,94.10
2018-12-25T14:41:22.295Z,94.19
2018-12-25T14:44:29.114Z,94.46
2018-12-25T14:47:35.848Z,94.39
2018-12-25T14:50:43.200Z,94.30
2018-12-25T14:53:50.547Z,94.31
2018-12-25T14:56:57.362Z,94.46
2018-12-25T15:00:04.563Z,94.21
2018-12-25T15:03:13.083Z,94.21
2018-12-25T15:06:20.071Z,93.50
2018-12-25T15:09:27.332Z,93.61
2018-12-25T15:12:34.032Z,93.49
2018-12-25T15:15:41.135Z,92.97
2018-12-25T15:18:48.241Z,93.08
2018-12-25T15:21:55.418Z,92.65
2018-12-25T15:25:02.276Z,92.45
2018-12-25T15:28:09.113Z,91.75
2018-12-25T15:31:16.132Z,91.83
2018-12-25T15:34:23.098Z,92.00
2018-12-25T15:37:30.202Z,92.34
2018-12-25T15:40:37.239Z,92.14
2018-12-25T15:43:46.406Z,92.08
2018-12-25T15:46:53.115Z,92.08
2018-12-25T15:50:00.321Z,92.42
2018-12-25T15:53:07.050Z,91.99
2018-12-25T15:56:13.796Z,91.59
2018-12-25T15:59:20.782Z,91.82
2018-12-25T16:02:28.794Z,91.47
2018-12-25T16:05:36.008Z,91.75
2018-12-25T16:08:45.848Z,91.93
2018-12-25T16:11:52.970Z,91.57
2018-12-25T16:14:59.952Z,91.85
2018-12-25T16:18:07.178Z,91.60
2018-12-25T16:21:14.136Z,91.72
2018-12-25T16:24:27.280Z,91.75
2018-12-25T16:27:29.782Z,90.76
2018-12-25T16:30:36.697Z,91.31
2018-12-25T16:33:44.268Z,90.98
2018-12-25T16:36:51.396Z,91.15
2018-12-25T16:39:58.494Z,90.94
2018-12-25T16:43:05.430Z,91.14
2018-12-25T16:46:12.392Z,90.86
2018-12-25T16:49:19.338Z,91.31
2018-12-25T16:52:28.062Z,91.00
2018-12-25T16:55:35.282Z,91.28
2018-12-25T16:58:43.003Z,90.72
2018-12-25T17:01:50.018Z,91.21
2018-12-25T17:04:56.922Z,91.31
2018-12-25T17:08:04.259Z,91.01
2018-12-25T17:11:11.250Z,90.90
2018-12-25T17:14:18.301Z,90.58
2018-12-25T17:17:25.279Z,91.32
2018-12-25T17:20:32.491Z,90.79
2018-12-25T17:23:39.525Z,91.01
2018-12-25T17:26:46.838Z,90.73
2018-12-25T17:29:53.581Z,90.40
2018-12-25T17:33:00.448Z,90.58
2018-12-25T17:36:07.461Z,90.90
2018-12-25T17:39:14.442Z,90.78
2018-12-25T17:42:21.647Z,90.68
2018-12-25T17:45:28.447Z,91.14
2018-12-25T17:48:35.122Z,90.47
2018-12-25T17:51:42.308Z,90.60
2018-12-25T17:54:49.244Z,90.23
2018-12-25T17:57:56.585Z,91.16
2018-12-25T18:01:03.268Z,91.42
2018-12-25T18:04:10.083Z,91.56
2018-12-25T18:07:17.401Z,91.79
2018-12-25T18:10:25.429Z,92.13
2018-12-25T18:13:32.423Z,91.73
2018-12-25T18:16:39.464Z,92.26
2018-12-25T18:19:49.478Z,92.15
2018-12-25T18:22:56.492Z,92.48
2018-12-25T18:26:03.277Z,92.11
2018-12-25T18:29:10.090Z,91.96
2018-12-25T18:32:16.800Z,91.65
2018-12-25T18:35:23.961Z,91.71
2018-12-25T18:38:31.666Z,91.60
2018-12-25T18:41:39.341Z,91.55
2018-12-25T18:44:49.452Z,91.95
2018-12-25T18:47:57.308Z,91.73
2018-12-25T18:51:04.541Z,91.82
2018-12-25T18:54:11.628Z,91.63
2018-12-25T18:57:18.697Z,91.95
2018-12-25T19:00:25.840Z,91.77
2018-12-25T19:03:35.304Z,91.92
2018-12-25T19:06:43.442Z,91.40
2018-12-25T19:09:50.353Z,91.38
2018-12-25T19:12:57.499Z,91.49
2018-12-25T19:16:05.430Z,91.29
2018-12-25T19:19:12.255Z,91.33
2018-12-25T19:22:18.936Z,91.29
2018-12-25T19:25:25.702Z,91.06
2018-12-25T19:28:32.391Z,91.29
2018-12-25T19:31:39.179Z,90.52
2018-12-25T19:34:46.001Z,90.59
2018-12-25T19:37:52.752Z,90.83
2018-12-25T19:40:59.509Z,90.32
2018-12-25T19:44:06.269Z,90.69
2018-12-25T19:47:13.181Z,90.35
2018-12-25T19:50:20.143Z,89.75
2018-12-25T19:53:27.108Z,90.30
2018-12-25T19:56:34.317Z,90.07
2018-12-25T19:59:41.268Z,89.75
2018-12-25T20:03:00.013Z,90.11
2018-12-25T20:07:25.710Z,90.11
2018-12-25T20:11:23.441Z,89.84
2018-12-25T20:15:17.678Z,89.51
2018-12-25T20:19:04.035Z,89.30
2018-12-25T20:23:37.423Z,89.79
2018-12-25T20:27:45.965Z,89.40
2018-12-25T20:32:03.467Z,89.59
2018-12-25T20:36:24.409Z,89.71
2018-12-25T20:40:28.739Z,89.97
2018-12-25T20:44:43.684Z,89.84
2018-12-25T20:48:54.685Z,90.21
2018-12-25T20:53:26.848Z,89.86
2018-12-25T20:57:43.080Z,89.84
2018-12-25T21:01:45.824Z,89.22
2018-12-25T21:05:56.860Z,89.41
2018-12-25T21:10:14.122Z,89.28
2018-12-25T21:14:26.213Z,89.32
2018-12-25T21:18:39.392Z,88.99
2018-12-25T21:23:17.200Z,89.08
2018-12-25T21:27:18.366Z,89.30
2018-12-25T21:30:26.948Z,88.63
2018-12-25T21:33:34.007Z,88.10
2018-12-25T21:36:42.999Z,88.46
2018-12-25T21:39:50.214Z,88.06
2018-12-25T21:42:58.146Z,88.12
2018-12-25T21:46:05.311Z,88.58
2018-12-25T21:49:14.366Z,88.68
2018-12-25T21:52:21.322Z,89.09
2018-12-25T21:55:28.143Z,88.76
2018-12-25T21:58:35.363Z,88.84
2018-12-25T22:01:42.295Z,89.13
2018-12-25T22:04:51.918Z,88.86
2018-12-25T22:07:58.976Z,89.22
2018-12-25T22:11:05.905Z,88.80
2018-12-25T22:14:13.117Z,89.64
2018-12-25T22:17:20.235Z,88.94
2018-12-25T22:20:31.691Z,88.77
2018-12-25T22:23:39.334Z,88.28
2018-12-25T22:26:49.327Z,88.70
2018-12-25T22:29:57.479Z,88.31
2018-12-25T22:33:04.291Z,88.27
2018-12-25T22:36:11.469Z,88.26
2018-12-25T22:39:18.181Z,88.16
2018-12-25T22:42:25.188Z,88.60
2018-12-25T22:45:33.177Z,88.13
2018-12-25T22:48:41.983Z,87.67
2018-12-25T22:51:48.901Z,88.44
2018-12-25T22:54:55.696Z,88.21
2018-12-25T22:58:02.951Z,88.76
2018-12-25T23:01:09.743Z,88.30
2018-12-25T23:04:16.715Z,88.88
2018-12-25T23:07:23.732Z,88.73
2018-12-25T23:10:30.393Z,89.01
2018-12-25T23:13:37.619Z,88.63
2018-12-25T23:16:44.564Z,89.63
2018-12-25T23:19:51.672Z,88.61
2018-12-25T23:22:59.259Z,88.47
2018-12-25T23:26:06.281Z,88.69
2018-12-25T23:29:13.273Z,89.22
2018-12-25T23:32:20.372Z,89.15
2018-12-25T23:35:27.297Z,89.03
2018-12-25T23:38:34.192Z,88.77
2018-12-25T23:41:41.859Z,88.72
2018-12-25T23:44:48.810Z,89.46
2018-12-25T23:47:55.779Z,89.29
2018-12-25T23:51:02.770Z,89.46
2018-12-25T23:54:09.450Z,89.40
2018-12-25T23:57:16.220Z,89.25
